sensor_id;sensor_type;location;lat;lon;timestamp;P1;durP1;ratioP1;P2;durP2;ratioP2
81619;SDS011;71028;53.410;6.710;2023-07-31T00:00:49;4.30;;;2.80;;
81619;SDS011;71028;53.410;6.710;2023-07-31T00:03:14;4.75;;;2.72;;
81619;SDS011;71028;53.410;6.710;2023-07-31T00:05:40;5.63;;;3.00;;
81619;SDS011;71028;53.410;6.710;2023-07-31T00:08:07;3.80;;;2.72;;
81619;SDS011;71028;53.410;6.710;2023-07-31T00:10:33;4.88;;;2.95;;
81619;SDS011;71028;53.410;6.710;2023-07-31T00:12:59;3.88;;;2.70;;
81619;SDS011;71028;53.410;6.710;2023-07-31T00:15:25;3.67;;;2.75;;
81619;SDS011;71028;53.410;6.710;2023-07-31T00:17:51;4.65;;;2.95;;
81619;SDS011;71028;53.410;6.710;2023-07-31T00:20:17;5.13;;;2.70;;
81619;SDS011;71028;53.410;6.710;2023-07-31T00:22:43;5.30;;;2.92;;
81619;SDS011;71028;53.410;6.710;2023-07-31T00:25:09;3.65;;;2.63;;
81619;SDS011;71028;53.410;6.710;2023-07-31T00:27:35;6.30;;;2.83;;
81619;SDS011;71028;53.410;6.710;2023-07-31T00:30:01;6.50;;;3.70;;
81619;SDS011;71028;53.410;6.710;2023-07-31T00:32:27;4.32;;;2.60;;
81619;SDS011;71028;53.410;6.710;2023-07-31T00:34:53;6.25;;;3.40;;
81619;SDS011;71028;53.410;6.710;2023-07-31T00:37:19;4.40;;;2.38;;
81619;SDS011;71028;53.410;6.710;2023-07-31T00:39:45;5.88;;;3.33;;
81619;SDS011;71028;53.410;6.710;2023-07-31T00:42:11;6.07;;;2.95;;
81619;SDS011;71028;53.410;6.710;2023-07-31T00:44:37;4.90;;;2.67;;
81619;SDS011;71028;53.410;6.710;2023-07-31T00:47:03;5.25;;;3.10;;
81619;SDS011;71028;53.410;6.710;2023-07-31T00:49:29;4.70;;;3.10;;
81619;SDS011;71028;53.410;6.710;2023-07-31T00:51:55;6.68;;;3.40;;
81619;SDS011;71028;53.410;6.710;2023-07-31T00:54:22;4.05;;;3.00;;
81619;SDS011;71028;53.410;6.710;2023-07-31T00:56:48;4.07;;;3.28;;
81619;SDS011;71028;53.410;6.710;2023-07-31T00:59:16;4.68;;;3.28;;
81619;SDS011;71028;53.410;6.710;2023-07-31T01:01:43;4.90;;;2.97;;
81619;SDS011;71028;53.410;6.710;2023-07-31T01:04:09;4.03;;;3.00;;
81619;SDS011;71028;53.410;6.710;2023-07-31T01:06:39;4.40;;;3.17;;
81619;SDS011;71028;53.410;6.710;2023-07-31T01:09:09;4.95;;;2.80;;
81619;SDS011;71028;53.410;6.710;2023-07-31T01:11:46;4.95;;;3.22;;
81619;SDS011;71028;53.410;6.710;2023-07-31T01:14:12;6.03;;;3.17;;
81619;SDS011;71028;53.410;6.710;2023-07-31T01:16:38;4.85;;;3.08;;
81619;SDS011;71028;53.410;6.710;2023-07-31T01:19:05;4.80;;;3.38;;
81619;SDS011;71028;53.410;6.710;2023-07-31T01:26:38;3.22;;;2.40;;
81619;SDS011;71028;53.410;6.710;2023-07-31T01:31:33;2.90;;;2.08;;
81619;SDS011;71028;53.410;6.710;2023-07-31T01:34:01;4.40;;;1.80;;
81619;SDS011;71028;53.410;6.710;2023-07-31T01:36:27;5.43;;;1.90;;
81619;SDS011;71028;53.410;6.710;2023-07-31T01:39:00;2.60;;;1.70;;
81619;SDS011;71028;53.410;6.710;2023-07-31T01:41:27;4.82;;;2.22;;
81619;SDS011;71028;53.410;6.710;2023-07-31T01:43:53;4.35;;;2.47;;
81619;SDS011;71028;53.410;6.710;2023-07-31T01:46:19;4.72;;;2.38;;
81619;SDS011;71028;53.410;6.710;2023-07-31T01:48:45;4.63;;;2.13;;
81619;SDS011;71028;53.410;6.710;2023-07-31T01:51:11;4.15;;;2.40;;
81619;SDS011;71028;53.410;6.710;2023-07-31T01:53:37;3.22;;;2.22;;
81619;SDS011;71028;53.410;6.710;2023-07-31T01:56:03;4.60;;;2.70;;
81619;SDS011;71028;53.410;6.710;2023-07-31T01:58:29;4.70;;;2.67;;
81619;SDS011;71028;53.410;6.710;2023-07-31T02:00:55;3.90;;;2.28;;
81619;SDS011;71028;53.410;6.710;2023-07-31T02:03:21;3.67;;;2.63;;
81619;SDS011;71028;53.410;6.710;2023-07-31T02:05:48;4.20;;;2.40;;
81619;SDS011;71028;53.410;6.710;2023-07-31T02:08:15;3.65;;;2.67;;
81619;SDS011;71028;53.410;6.710;2023-07-31T02:10:41;3.95;;;2.80;;
81619;SDS011;71028;53.410;6.710;2023-07-31T02:13:07;5.95;;;2.60;;
81619;SDS011;71028;53.410;6.710;2023-07-31T02:15:34;3.70;;;2.10;;
81619;SDS011;71028;53.410;6.710;2023-07-31T02:18:00;3.03;;;2.47;;
81619;SDS011;71028;53.410;6.710;2023-07-31T02:20:26;4.07;;;3.03;;
81619;SDS011;71028;53.410;6.710;2023-07-31T02:22:52;5.05;;;2.22;;
81619;SDS011;71028;53.410;6.710;2023-07-31T02:25:18;4.43;;;2.42;;
81619;SDS011;71028;53.410;6.710;2023-07-31T02:27:44;3.35;;;2.30;;
81619;SDS011;71028;53.410;6.710;2023-07-31T02:30:10;4.68;;;2.50;;
81619;SDS011;71028;53.410;6.710;2023-07-31T02:32:36;4.45;;;2.55;;
81619;SDS011;71028;53.410;6.710;2023-07-31T02:35:02;4.72;;;2.30;;
81619;SDS011;71028;53.410;6.710;2023-07-31T02:37:28;4.25;;;2.70;;
81619;SDS011;71028;53.410;6.710;2023-07-31T02:39:54;3.70;;;2.78;;
81619;SDS011;71028;53.410;6.710;2023-07-31T02:42:21;4.03;;;2.60;;
81619;SDS011;71028;53.410;6.710;2023-07-31T02:44:47;4.43;;;2.60;;
81619;SDS011;71028;53.410;6.710;2023-07-31T02:47:13;5.45;;;2.88;;
81619;SDS011;71028;53.410;6.710;2023-07-31T02:49:39;5.25;;;2.75;;
81619;SDS011;71028;53.410;6.710;2023-07-31T02:52:05;3.92;;;2.90;;
81619;SDS011;71028;53.410;6.710;2023-07-31T02:54:31;4.93;;;2.47;;
81619;SDS011;71028;53.410;6.710;2023-07-31T02:56:57;4.57;;;2.45;;
81619;SDS011;71028;53.410;6.710;2023-07-31T02:59:23;5.57;;;2.67;;
81619;SDS011;71028;53.410;6.710;2023-07-31T03:01:50;6.25;;;2.70;;
81619;SDS011;71028;53.410;6.710;2023-07-31T03:04:16;4.22;;;2.80;;
81619;SDS011;71028;53.410;6.710;2023-07-31T03:06:42;4.70;;;2.70;;
81619;SDS011;71028;53.410;6.710;2023-07-31T03:09:08;4.03;;;2.60;;
81619;SDS011;71028;53.410;6.710;2023-07-31T03:11:34;3.80;;;2.50;;
81619;SDS011;71028;53.410;6.710;2023-07-31T03:14:00;5.00;;;2.70;;
81619;SDS011;71028;53.410;6.710;2023-07-31T03:16:29;4.30;;;2.40;;
81619;SDS011;71028;53.410;6.710;2023-07-31T03:18:55;3.65;;;2.15;;
81619;SDS011;71028;53.410;6.710;2023-07-31T03:21:21;4.78;;;2.55;;
81619;SDS011;71028;53.410;6.710;2023-07-31T03:23:47;4.70;;;2.63;;
81619;SDS011;71028;53.410;6.710;2023-07-31T03:26:13;6.88;;;2.65;;
81619;SDS011;71028;53.410;6.710;2023-07-31T03:28:39;4.03;;;2.38;;
81619;SDS011;71028;53.410;6.710;2023-07-31T03:31:05;5.32;;;2.60;;
81619;SDS011;71028;53.410;6.710;2023-07-31T03:33:33;3.38;;;2.20;;
81619;SDS011;71028;53.410;6.710;2023-07-31T03:35:59;2.88;;;1.80;;
81619;SDS011;71028;53.410;6.710;2023-07-31T03:38:25;3.42;;;2.40;;
81619;SDS011;71028;53.410;6.710;2023-07-31T03:40:51;5.13;;;1.88;;
81619;SDS011;71028;53.410;6.710;2023-07-31T03:43:17;3.10;;;2.08;;
81619;SDS011;71028;53.410;6.710;2023-07-31T03:45:43;5.32;;;2.33;;
81619;SDS011;71028;53.410;6.710;2023-07-31T03:48:09;2.97;;;2.03;;
81619;SDS011;71028;53.410;6.710;2023-07-31T03:50:35;6.05;;;2.67;;
81619;SDS011;71028;53.410;6.710;2023-07-31T03:53:01;3.20;;;1.98;;
81619;SDS011;71028;53.410;6.710;2023-07-31T03:55:27;2.85;;;1.77;;
81619;SDS011;71028;53.410;6.710;2023-07-31T03:57:53;4.00;;;2.08;;
81619;SDS011;71028;53.410;6.710;2023-07-31T04:00:19;2.47;;;1.85;;
81619;SDS011;71028;53.410;6.710;2023-07-31T04:02:47;4.25;;;1.92;;
81619;SDS011;71028;53.410;6.710;2023-07-31T04:05:13;4.10;;;2.00;;
81619;SDS011;71028;53.410;6.710;2023-07-31T04:07:39;2.90;;;1.77;;
81619;SDS011;71028;53.410;6.710;2023-07-31T04:10:05;3.75;;;2.10;;
81619;SDS011;71028;53.410;6.710;2023-07-31T04:12:31;2.67;;;2.30;;
81619;SDS011;71028;53.410;6.710;2023-07-31T04:14:57;3.13;;;2.15;;
81619;SDS011;71028;53.410;6.710;2023-07-31T04:17:23;4.15;;;2.00;;
81619;SDS011;71028;53.410;6.710;2023-07-31T04:19:49;2.92;;;1.52;;
81619;SDS011;71028;53.410;6.710;2023-07-31T04:22:15;3.13;;;1.63;;
81619;SDS011;71028;53.410;6.710;2023-07-31T04:24:41;3.25;;;1.90;;
81619;SDS011;71028;53.410;6.710;2023-07-31T04:27:07;2.65;;;1.60;;
81619;SDS011;71028;53.410;6.710;2023-07-31T04:29:33;4.22;;;1.90;;
81619;SDS011;71028;53.410;6.710;2023-07-31T04:31:59;3.20;;;1.67;;
81619;SDS011;71028;53.410;6.710;2023-07-31T04:34:25;4.10;;;1.77;;
81619;SDS011;71028;53.410;6.710;2023-07-31T04:36:51;2.90;;;1.63;;
81619;SDS011;71028;53.410;6.710;2023-07-31T04:39:17;2.38;;;1.58;;
81619;SDS011;71028;53.410;6.710;2023-07-31T04:41:43;2.35;;;1.40;;
81619;SDS011;71028;53.410;6.710;2023-07-31T04:44:09;2.33;;;1.13;;
81619;SDS011;71028;53.410;6.710;2023-07-31T04:46:36;1.70;;;1.10;;
81619;SDS011;71028;53.410;6.710;2023-07-31T04:49:02;3.72;;;1.40;;
81619;SDS011;71028;53.410;6.710;2023-07-31T04:51:28;3.58;;;1.42;;
81619;SDS011;71028;53.410;6.710;2023-07-31T04:53:55;3.28;;;1.20;;
81619;SDS011;71028;53.410;6.710;2023-07-31T04:56:21;3.60;;;1.33;;
81619;SDS011;71028;53.410;6.710;2023-07-31T04:58:47;3.15;;;1.20;;
81619;SDS011;71028;53.410;6.710;2023-07-31T05:01:13;2.13;;;1.20;;
81619;SDS011;71028;53.410;6.710;2023-07-31T05:03:39;2.90;;;1.40;;
81619;SDS011;71028;53.410;6.710;2023-07-31T05:06:05;4.00;;;1.20;;
81619;SDS011;71028;53.410;6.710;2023-07-31T05:08:31;2.63;;;1.02;;
81619;SDS011;71028;53.410;6.710;2023-07-31T05:10:58;2.63;;;1.00;;
81619;SDS011;71028;53.410;6.710;2023-07-31T05:13:24;3.10;;;1.75;;
81619;SDS011;71028;53.410;6.710;2023-07-31T05:15:50;2.00;;;1.20;;
81619;SDS011;71028;53.410;6.710;2023-07-31T05:18:16;4.97;;;1.50;;
81619;SDS011;71028;53.410;6.710;2023-07-31T05:20:42;2.42;;;1.00;;
81619;SDS011;71028;53.410;6.710;2023-07-31T05:23:08;1.25;;;0.85;;
81619;SDS011;71028;53.410;6.710;2023-07-31T05:25:34;2.85;;;1.25;;
81619;SDS011;71028;53.410;6.710;2023-07-31T05:28:00;2.67;;;1.10;;
81619;SDS011;71028;53.410;6.710;2023-07-31T05:30:26;3.70;;;1.10;;
81619;SDS011;71028;53.410;6.710;2023-07-31T05:32:52;2.20;;;1.10;;
81619;SDS011;71028;53.410;6.710;2023-07-31T05:35:18;4.20;;;1.27;;
81619;SDS011;71028;53.410;6.710;2023-07-31T05:37:44;3.22;;;1.42;;
81619;SDS011;71028;53.410;6.710;2023-07-31T05:40:10;1.85;;;1.15;;
81619;SDS011;71028;53.410;6.710;2023-07-31T05:42:37;2.20;;;1.10;;
81619;SDS011;71028;53.410;6.710;2023-07-31T05:45:04;1.90;;;1.10;;
81619;SDS011;71028;53.410;6.710;2023-07-31T05:47:30;2.78;;;1.10;;
81619;SDS011;71028;53.410;6.710;2023-07-31T05:49:56;1.67;;;0.98;;
81619;SDS011;71028;53.410;6.710;2023-07-31T05:52:22;1.42;;;0.80;;
81619;SDS011;71028;53.410;6.710;2023-07-31T05:54:48;2.13;;;1.20;;
81619;SDS011;71028;53.410;6.710;2023-07-31T05:57:14;2.03;;;1.08;;
81619;SDS011;71028;53.410;6.710;2023-07-31T05:59:40;2.50;;;1.10;;
81619;SDS011;71028;53.410;6.710;2023-07-31T06:02:06;1.60;;;1.00;;
81619;SDS011;71028;53.410;6.710;2023-07-31T06:04:32;1.88;;;0.90;;
81619;SDS011;71028;53.410;6.710;2023-07-31T06:06:58;1.52;;;0.93;;
81619;SDS011;71028;53.410;6.710;2023-07-31T06:09:24;2.45;;;1.10;;
81619;SDS011;71028;53.410;6.710;2023-07-31T06:11:50;5.15;;;1.15;;
81619;SDS011;71028;53.410;6.710;2023-07-31T06:14:16;1.70;;;1.10;;
81619;SDS011;71028;53.410;6.710;2023-07-31T06:16:43;1.88;;;0.80;;
81619;SDS011;71028;53.410;6.710;2023-07-31T06:19:09;4.18;;;1.00;;
81619;SDS011;71028;53.410;6.710;2023-07-31T06:21:36;2.83;;;0.90;;
81619;SDS011;71028;53.410;6.710;2023-07-31T06:24:03;1.40;;;0.70;;
81619;SDS011;71028;53.410;6.710;2023-07-31T06:26:29;1.40;;;0.93;;
81619;SDS011;71028;53.410;6.710;2023-07-31T06:28:55;1.35;;;0.70;;
81619;SDS011;71028;53.410;6.710;2023-07-31T06:31:21;1.50;;;0.80;;
81619;SDS011;71028;53.410;6.710;2023-07-31T06:33:51;1.33;;;0.70;;
81619;SDS011;71028;53.410;6.710;2023-07-31T06:36:17;1.08;;;0.70;;
81619;SDS011;71028;53.410;6.710;2023-07-31T06:38:43;1.08;;;0.60;;
81619;SDS011;71028;53.410;6.710;2023-07-31T06:41:09;2.95;;;0.63;;
81619;SDS011;71028;53.410;6.710;2023-07-31T06:43:35;0.90;;;0.60;;
81619;SDS011;71028;53.410;6.710;2023-07-31T06:46:08;1.40;;;0.73;;
81619;SDS011;71028;53.410;6.710;2023-07-31T06:48:35;2.25;;;0.73;;
81619;SDS011;71028;53.410;6.710;2023-07-31T06:51:02;1.80;;;0.70;;
81619;SDS011;71028;53.410;6.710;2023-07-31T06:53:28;1.85;;;0.90;;
81619;SDS011;71028;53.410;6.710;2023-07-31T06:55:54;3.80;;;1.00;;
81619;SDS011;71028;53.410;6.710;2023-07-31T06:58:20;2.63;;;1.00;;
81619;SDS011;71028;53.410;6.710;2023-07-31T07:00:46;2.38;;;1.20;;
81619;SDS011;71028;53.410;6.710;2023-07-31T07:03:14;4.15;;;1.30;;
81619;SDS011;71028;53.410;6.710;2023-07-31T07:05:40;2.95;;;1.50;;
81619;SDS011;71028;53.410;6.710;2023-07-31T07:08:07;2.17;;;1.17;;
81619;SDS011;71028;53.410;6.710;2023-07-31T07:10:33;2.30;;;1.00;;
81619;SDS011;71028;53.410;6.710;2023-07-31T07:12:59;2.33;;;1.13;;
81619;SDS011;71028;53.410;6.710;2023-07-31T07:15:25;2.33;;;1.10;;
81619;SDS011;71028;53.410;6.710;2023-07-31T07:17:51;3.10;;;1.08;;
81619;SDS011;71028;53.410;6.710;2023-07-31T07:20:17;3.28;;;1.17;;
81619;SDS011;71028;53.410;6.710;2023-07-31T07:22:45;2.35;;;1.10;;
81619;SDS011;71028;53.410;6.710;2023-07-31T07:25:11;2.15;;;0.90;;
81619;SDS011;71028;53.410;6.710;2023-07-31T07:27:37;1.63;;;0.93;;
81619;SDS011;71028;53.410;6.710;2023-07-31T07:30:03;3.33;;;1.08;;
81619;SDS011;71028;53.410;6.710;2023-07-31T07:32:29;2.55;;;1.38;;
81619;SDS011;71028;53.410;6.710;2023-07-31T07:34:55;1.77;;;1.20;;
81619;SDS011;71028;53.410;6.710;2023-07-31T07:37:21;2.17;;;1.38;;
81619;SDS011;71028;53.410;6.710;2023-07-31T07:39:47;2.53;;;1.65;;
81619;SDS011;71028;53.410;6.710;2023-07-31T07:42:13;3.97;;;1.40;;
81619;SDS011;71028;53.410;6.710;2023-07-31T07:44:39;4.00;;;1.60;;
81619;SDS011;71028;53.410;6.710;2023-07-31T07:47:05;4.78;;;1.70;;
81619;SDS011;71028;53.410;6.710;2023-07-31T07:49:32;4.80;;;1.60;;
81619;SDS011;71028;53.410;6.710;2023-07-31T07:51:59;5.15;;;2.13;;
81619;SDS011;71028;53.410;6.710;2023-07-31T07:54:25;6.28;;;2.10;;
81619;SDS011;71028;53.410;6.710;2023-07-31T07:56:51;7.40;;;2.83;;
81619;SDS011;71028;53.410;6.710;2023-07-31T07:59:17;8.60;;;2.83;;
81619;SDS011;71028;53.410;6.710;2023-07-31T08:01:43;7.82;;;3.17;;
81619;SDS011;71028;53.410;6.710;2023-07-31T08:04:09;12.05;;;3.42;;
81619;SDS011;71028;53.410;6.710;2023-07-31T08:06:35;6.22;;;3.00;;
81619;SDS011;71028;53.410;6.710;2023-07-31T08:09:01;11.13;;;3.58;;
81619;SDS011;71028;53.410;6.710;2023-07-31T08:11:31;6.80;;;2.92;;
81619;SDS011;71028;53.410;6.710;2023-07-31T08:13:57;10.85;;;3.53;;
81619;SDS011;71028;53.410;6.710;2023-07-31T08:16:23;5.65;;;2.13;;
81619;SDS011;71028;53.410;6.710;2023-07-31T08:18:49;6.57;;;2.33;;
81619;SDS011;71028;53.410;6.710;2023-07-31T08:21:15;5.38;;;2.30;;
81619;SDS011;71028;53.410;6.710;2023-07-31T08:23:41;7.05;;;2.90;;
81619;SDS011;71028;53.410;6.710;2023-07-31T08:26:07;7.20;;;2.88;;
81619;SDS011;71028;53.410;6.710;2023-07-31T08:28:33;7.47;;;2.53;;
81619;SDS011;71028;53.410;6.710;2023-07-31T08:31:01;9.98;;;3.08;;
81619;SDS011;71028;53.410;6.710;2023-07-31T08:33:27;8.85;;;2.85;;
81619;SDS011;71028;53.410;6.710;2023-07-31T08:35:53;8.35;;;2.80;;
81619;SDS011;71028;53.410;6.710;2023-07-31T08:38:19;7.72;;;2.70;;
81619;SDS011;71028;53.410;6.710;2023-07-31T08:40:46;4.68;;;2.35;;
81619;SDS011;71028;53.410;6.710;2023-07-31T08:43:12;4.90;;;2.42;;
81619;SDS011;71028;53.410;6.710;2023-07-31T08:45:38;4.50;;;1.88;;
81619;SDS011;71028;53.410;6.710;2023-07-31T08:48:04;3.35;;;1.48;;
81619;SDS011;71028;53.410;6.710;2023-07-31T08:50:30;2.60;;;1.17;;
81619;SDS011;71028;53.410;6.710;2023-07-31T08:52:56;1.60;;;0.95;;
81619;SDS011;71028;53.410;6.710;2023-07-31T08:55:22;2.95;;;0.80;;
81619;SDS011;71028;53.410;6.710;2023-07-31T08:57:50;1.90;;;0.80;;
81619;SDS011;71028;53.410;6.710;2023-07-31T09:00:17;1.83;;;0.80;;
81619;SDS011;71028;53.410;6.710;2023-07-31T09:02:52;1.30;;;0.80;;
81619;SDS011;71028;53.410;6.710;2023-07-31T09:05:20;1.52;;;0.80;;
81619;SDS011;71028;53.410;6.710;2023-07-31T09:07:47;1.38;;;0.70;;
81619;SDS011;71028;53.410;6.710;2023-07-31T09:10:13;1.48;;;1.02;;
81619;SDS011;71028;53.410;6.710;2023-07-31T09:12:39;1.67;;;0.60;;
81619;SDS011;71028;53.410;6.710;2023-07-31T09:15:05;1.20;;;0.93;;
81619;SDS011;71028;53.410;6.710;2023-07-31T09:17:33;1.73;;;0.90;;
81619;SDS011;71028;53.410;6.710;2023-07-31T09:20:18;1.73;;;1.00;;
81619;SDS011;71028;53.410;6.710;2023-07-31T09:22:44;1.13;;;0.82;;
81619;SDS011;71028;53.410;6.710;2023-07-31T09:25:18;2.13;;;1.00;;
81619;SDS011;71028;53.410;6.710;2023-07-31T09:30:17;1.65;;;0.80;;
81619;SDS011;71028;53.410;6.710;2023-07-31T09:32:44;1.00;;;0.77;;
81619;SDS011;71028;53.410;6.710;2023-07-31T09:35:27;1.00;;;0.77;;
81619;SDS011;71028;53.410;6.710;2023-07-31T09:37:55;1.73;;;1.00;;
81619;SDS011;71028;53.410;6.710;2023-07-31T09:40:24;1.55;;;0.88;;
81619;SDS011;71028;53.410;6.710;2023-07-31T09:42:51;1.55;;;0.88;;
81619;SDS011;71028;53.410;6.710;2023-07-31T09:45:17;1.38;;;0.90;;
81619;SDS011;71028;53.410;6.710;2023-07-31T09:47:47;1.63;;;0.73;;
81619;SDS011;71028;53.410;6.710;2023-07-31T09:50:14;0.85;;;0.77;;
81619;SDS011;71028;53.410;6.710;2023-07-31T09:52:41;1.13;;;0.70;;
81619;SDS011;71028;53.410;6.710;2023-07-31T09:55:07;1.38;;;0.60;;
81619;SDS011;71028;53.410;6.710;2023-07-31T09:57:33;1.20;;;0.80;;
81619;SDS011;71028;53.410;6.710;2023-07-31T09:59:59;1.00;;;0.70;;
81619;SDS011;71028;53.410;6.710;2023-07-31T10:02:26;0.73;;;0.55;;
81619;SDS011;71028;53.410;6.710;2023-07-31T10:04:54;1.45;;;0.73;;
81619;SDS011;71028;53.410;6.710;2023-07-31T10:07:25;1.80;;;0.77;;
81619;SDS011;71028;53.410;6.710;2023-07-31T10:09:51;1.02;;;0.73;;
81619;SDS011;71028;53.410;6.710;2023-07-31T10:12:19;2.05;;;0.90;;
81619;SDS011;71028;53.410;6.710;2023-07-31T10:14:48;1.00;;;0.73;;
81619;SDS011;71028;53.410;6.710;2023-07-31T10:17:14;1.20;;;0.80;;
81619;SDS011;71028;53.410;6.710;2023-07-31T10:19:40;1.55;;;0.80;;
81619;SDS011;71028;53.410;6.710;2023-07-31T10:22:06;1.42;;;0.80;;
81619;SDS011;71028;53.410;6.710;2023-07-31T10:24:32;2.03;;;0.80;;
81619;SDS011;71028;53.410;6.710;2023-07-31T10:26:58;0.95;;;0.60;;
81619;SDS011;71028;53.410;6.710;2023-07-31T10:29:25;3.08;;;0.70;;
81619;SDS011;71028;53.410;6.710;2023-07-31T10:31:52;0.60;;;0.40;;
81619;SDS011;71028;53.410;6.710;2023-07-31T10:34:18;2.10;;;0.85;;
81619;SDS011;71028;53.410;6.710;2023-07-31T10:36:44;1.73;;;0.82;;
81619;SDS011;71028;53.410;6.710;2023-07-31T10:41:55;1.38;;;0.75;;
81619;SDS011;71028;53.410;6.710;2023-07-31T10:44:21;1.35;;;0.77;;
81619;SDS011;71028;53.410;6.710;2023-07-31T10:46:47;2.30;;;1.05;;
81619;SDS011;71028;53.410;6.710;2023-07-31T10:49:13;1.98;;;1.00;;
81619;SDS011;71028;53.410;6.710;2023-07-31T10:51:46;1.67;;;1.15;;
81619;SDS011;71028;53.410;6.710;2023-07-31T10:54:13;3.72;;;1.27;;
81619;SDS011;71028;53.410;6.710;2023-07-31T10:56:40;2.97;;;0.98;;
81619;SDS011;71028;53.410;6.710;2023-07-31T10:59:06;2.88;;;1.13;;
81619;SDS011;71028;53.410;6.710;2023-07-31T11:01:51;4.22;;;1.42;;
81619;SDS011;71028;53.410;6.710;2023-07-31T11:04:22;4.70;;;1.40;;
81619;SDS011;71028;53.410;6.710;2023-07-31T11:06:56;3.65;;;1.30;;
81619;SDS011;71028;53.410;6.710;2023-07-31T11:09:24;2.42;;;1.30;;
81619;SDS011;71028;53.410;6.710;2023-07-31T11:11:50;3.05;;;1.50;;
81619;SDS011;71028;53.410;6.710;2023-07-31T11:14:17;4.43;;;1.70;;
81619;SDS011;71028;53.410;6.710;2023-07-31T11:16:43;5.75;;;1.63;;
81619;SDS011;71028;53.410;6.710;2023-07-31T11:19:09;4.75;;;1.30;;
81619;SDS011;71028;53.410;6.710;2023-07-31T11:21:35;5.88;;;1.45;;
81619;SDS011;71028;53.410;6.710;2023-07-31T11:24:02;4.30;;;1.60;;
81619;SDS011;71028;53.410;6.710;2023-07-31T11:26:28;7.50;;;1.90;;
81619;SDS011;71028;53.410;6.710;2023-07-31T11:28:55;2.63;;;1.30;;
81619;SDS011;71028;53.410;6.710;2023-07-31T11:31:21;4.63;;;1.58;;
81619;SDS011;71028;53.410;6.710;2023-07-31T11:33:48;3.35;;;1.88;;
81619;SDS011;71028;53.410;6.710;2023-07-31T11:36:17;3.92;;;1.42;;
81619;SDS011;71028;53.410;6.710;2023-07-31T11:38:44;3.17;;;1.60;;
81619;SDS011;71028;53.410;6.710;2023-07-31T11:41:10;4.03;;;1.45;;
81619;SDS011;71028;53.410;6.710;2023-07-31T11:43:36;3.92;;;1.40;;
81619;SDS011;71028;53.410;6.710;2023-07-31T11:46:02;4.00;;;1.70;;
81619;SDS011;71028;53.410;6.710;2023-07-31T11:48:29;5.43;;;1.55;;
81619;SDS011;71028;53.410;6.710;2023-07-31T11:50:58;3.95;;;1.48;;
81619;SDS011;71028;53.410;6.710;2023-07-31T11:56:03;4.00;;;1.55;;
81619;SDS011;71028;53.410;6.710;2023-07-31T11:58:30;3.83;;;1.55;;
81619;SDS011;71028;53.410;6.710;2023-07-31T12:00:56;4.60;;;1.88;;
81619;SDS011;71028;53.410;6.710;2023-07-31T12:03:23;4.63;;;1.88;;
81619;SDS011;71028;53.410;6.710;2023-07-31T12:05:49;3.30;;;1.70;;
81619;SDS011;71028;53.410;6.710;2023-07-31T12:08:15;3.83;;;1.77;;
81619;SDS011;71028;53.410;6.710;2023-07-31T12:10:41;5.20;;;2.03;;
81619;SDS011;71028;53.410;6.710;2023-07-31T12:13:09;5.22;;;2.05;;
81619;SDS011;71028;53.410;6.710;2023-07-31T12:15:39;4.82;;;2.05;;
81619;SDS011;71028;53.410;6.710;2023-07-31T12:18:05;6.70;;;2.35;;
81619;SDS011;71028;53.410;6.710;2023-07-31T12:20:32;4.30;;;1.70;;
81619;SDS011;71028;53.410;6.710;2023-07-31T12:22:58;5.20;;;1.70;;
81619;SDS011;71028;53.410;6.710;2023-07-31T12:25:34;4.93;;;2.05;;
81619;SDS011;71028;53.410;6.710;2023-07-31T12:28:04;3.95;;;1.75;;
81619;SDS011;71028;53.410;6.710;2023-07-31T12:30:34;2.35;;;1.45;;
81619;SDS011;71028;53.410;6.710;2023-07-31T12:33:10;2.85;;;1.30;;
81619;SDS011;71028;53.410;6.710;2023-07-31T12:35:38;3.95;;;1.70;;
81619;SDS011;71028;53.410;6.710;2023-07-31T12:38:06;5.22;;;1.30;;
81619;SDS011;71028;53.410;6.710;2023-07-31T12:40:32;4.63;;;1.63;;
81619;SDS011;71028;53.410;6.710;2023-07-31T12:43:00;2.92;;;1.70;;
81619;SDS011;71028;53.410;6.710;2023-07-31T12:45:28;4.05;;;1.60;;
81619;SDS011;71028;53.410;6.710;2023-07-31T12:47:54;2.25;;;1.30;;
81619;SDS011;71028;53.410;6.710;2023-07-31T12:50:20;3.55;;;1.45;;
81619;SDS011;71028;53.410;6.710;2023-07-31T12:52:46;2.20;;;1.25;;
81619;SDS011;71028;53.410;6.710;2023-07-31T12:55:12;3.72;;;1.38;;
81619;SDS011;71028;53.410;6.710;2023-07-31T12:57:39;4.03;;;1.83;;
81619;SDS011;71028;53.410;6.710;2023-07-31T13:00:06;4.45;;;1.88;;
81619;SDS011;71028;53.410;6.710;2023-07-31T13:02:32;2.63;;;1.67;;
81619;SDS011;71028;53.410;6.710;2023-07-31T13:04:58;5.15;;;2.22;;
81619;SDS011;71028;53.410;6.710;2023-07-31T13:07:24;5.25;;;1.92;;
81619;SDS011;71028;53.410;6.710;2023-07-31T13:09:50;4.68;;;2.25;;
81619;SDS011;71028;53.410;6.710;2023-07-31T13:12:16;4.45;;;1.88;;
81619;SDS011;71028;53.410;6.710;2023-07-31T13:14:42;4.18;;;1.70;;
81619;SDS011;71028;53.410;6.710;2023-07-31T13:17:08;1.90;;;1.30;;
81619;SDS011;71028;53.410;6.710;2023-07-31T13:19:34;4.57;;;1.40;;
81619;SDS011;71028;53.410;6.710;2023-07-31T13:22:00;1.80;;;1.20;;
81619;SDS011;71028;53.410;6.710;2023-07-31T13:24:26;2.08;;;1.00;;
81619;SDS011;71028;53.410;6.710;2023-07-31T13:26:52;3.22;;;1.30;;
81619;SDS011;71028;53.410;6.710;2023-07-31T13:29:18;3.42;;;1.23;;
81619;SDS011;71028;53.410;6.710;2023-07-31T13:31:45;2.38;;;1.15;;
81619;SDS011;71028;53.410;6.710;2023-07-31T13:34:11;2.95;;;1.23;;
81619;SDS011;71028;53.410;6.710;2023-07-31T13:36:37;2.78;;;1.40;;
81619;SDS011;71028;53.410;6.710;2023-07-31T13:39:03;4.40;;;1.20;;
81619;SDS011;71028;53.410;6.710;2023-07-31T13:41:29;4.55;;;1.70;;
81619;SDS011;71028;53.410;6.710;2023-07-31T13:43:55;3.42;;;1.40;;
81619;SDS011;71028;53.410;6.710;2023-07-31T13:46:21;1.92;;;1.25;;
81619;SDS011;71028;53.410;6.710;2023-07-31T13:48:47;3.63;;;1.50;;
81619;SDS011;71028;53.410;6.710;2023-07-31T13:51:13;4.60;;;1.55;;
81619;SDS011;71028;53.410;6.710;2023-07-31T13:53:39;3.83;;;1.65;;
81619;SDS011;71028;53.410;6.710;2023-07-31T13:56:05;6.40;;;1.50;;
81619;SDS011;71028;53.410;6.710;2023-07-31T13:58:31;3.30;;;1.40;;
81619;SDS011;71028;53.410;6.710;2023-07-31T14:00:58;3.28;;;1.75;;
81619;SDS011;71028;53.410;6.710;2023-07-31T14:03:24;5.80;;;1.70;;
81619;SDS011;71028;53.410;6.710;2023-07-31T14:05:51;5.78;;;1.70;;
81619;SDS011;71028;53.410;6.710;2023-07-31T14:08:17;4.60;;;1.88;;
81619;SDS011;71028;53.410;6.710;2023-07-31T14:10:43;2.95;;;1.60;;
81619;SDS011;71028;53.410;6.710;2023-07-31T14:13:09;3.40;;;1.88;;
81619;SDS011;71028;53.410;6.710;2023-07-31T14:15:35;4.32;;;1.70;;
81619;SDS011;71028;53.410;6.710;2023-07-31T14:18:01;4.30;;;1.77;;
81619;SDS011;71028;53.410;6.710;2023-07-31T14:20:28;5.43;;;1.95;;
81619;SDS011;71028;53.410;6.710;2023-07-31T14:22:54;5.07;;;1.90;;
81619;SDS011;71028;53.410;6.710;2023-07-31T14:25:20;7.47;;;1.80;;
81619;SDS011;71028;53.410;6.710;2023-07-31T14:27:46;5.68;;;1.92;;
81619;SDS011;71028;53.410;6.710;2023-07-31T14:30:12;6.50;;;1.95;;
81619;SDS011;71028;53.410;6.710;2023-07-31T14:32:38;6.25;;;1.92;;
81619;SDS011;71028;53.410;6.710;2023-07-31T14:35:04;6.13;;;1.73;;
81619;SDS011;71028;53.410;6.710;2023-07-31T14:37:40;5.57;;;1.92;;
81619;SDS011;71028;53.410;6.710;2023-07-31T14:40:07;5.05;;;2.10;;
81619;SDS011;71028;53.410;6.710;2023-07-31T14:42:33;3.83;;;1.90;;
81619;SDS011;71028;53.410;6.710;2023-07-31T14:45:00;5.63;;;1.77;;
81619;SDS011;71028;53.410;6.710;2023-07-31T14:47:26;8.10;;;2.03;;
81619;SDS011;71028;53.410;6.710;2023-07-31T14:49:51;6.38;;;2.45;;
81619;SDS011;71028;53.410;6.710;2023-07-31T14:52:18;5.65;;;1.90;;
81619;SDS011;71028;53.410;6.710;2023-07-31T14:54:44;3.72;;;2.20;;
81619;SDS011;71028;53.410;6.710;2023-07-31T14:57:10;4.47;;;1.80;;
81619;SDS011;71028;53.410;6.710;2023-07-31T14:59:36;6.10;;;3.00;;